Time;durP1;ratioP1;P1;durP2;ratioP2;P2;SDS_P1;SDS_P2;PMS_P1;PMS_P2;Temp;Humidity;BMP_temperature;BMP_pressure;BME280_temperature;BME280_humidity;BME280_pressure;Samples;Min_cycle;Max_cycle;Signal;HPM_P1;HPM_P2
2022/02/28 00:00:48;;;;;;;4.35;3.50;;;23.00;29.70;;;;;;5109903;28;20921;-72
2022/02/28 00:03:14;;;;;;;4.63;3.90;;;23.00;29.70;;;;;;5110487;28;20935;-72
2022/02/28 00:05:40;;;;;;;4.35;3.78;;;23.00;29.70;;;;;;5111709;28;20441;-72
2022/02/28 00:08:06;;;;;;;4.20;3.63;;;23.00;29.60;;;;;;5111177;28;20380;-71
2022/02/28 00:10:33;;;;;;;4.60;3.60;;;23.00;29.60;;;;;;5111572;28;20383;-71
2022/02/28 00:12:59;;;;;;;4.13;3.60;;;22.90;29.60;;;;;;5111644;28;20391;-70
2022/02/28 00:15:25;;;;;;;4.32;3.58;;;23.00;29.60;;;;;;5110383;28;20388;-72
2022/02/28 00:17:51;;;;;;;4.03;3.47;;;23.00;29.60;;;;;;5109476;28;20384;-72
2022/02/28 00:20:17;;;;;;;4.28;3.78;;;22.90;29.60;;;;;;5109766;28;20391;-73
2022/02/28 00:22:44;;;;;;;4.80;3.80;;;22.90;29.50;;;;;;5111111;28;20416;-71
2022/02/28 00:25:11;;;;;;;4.55;3.72;;;22.90;29.50;;;;;;5110208;28;20422;-72
2022/02/28 00:27:38;;;;;;;4.97;3.70;;;22.90;29.50;;;;;;5110036;28;20400;-72
2022/02/28 00:30:07;;;;;;;4.00;3.60;;;22.90;29.50;;;;;;5109822;28;21026;-72
2022/02/28 00:32:33;;;;;;;5.15;3.63;;;22.90;29.60;;;;;;5111268;28;20380;-72
2022/02/28 00:34:59;;;;;;;4.53;3.53;;;22.90;29.50;;;;;;5111322;28;20399;-71
2022/02/28 00:37:25;;;;;;;4.47;3.58;;;22.90;29.40;;;;;;5111409;28;20377;-71
2022/02/28 00:39:51;;;;;;;4.90;3.63;;;22.90;29.40;;;;;;5111121;28;20403;-72
2022/02/28 00:42:17;;;;;;;4.78;3.42;;;22.80;29.40;;;;;;5111080;28;20853;-72
2022/02/28 00:44:45;;;;;;;4.53;3.53;;;22.80;29.40;;;;;;5111063;28;20877;-72
2022/02/28 00:47:12;;;;;;;4.60;3.80;;;22.80;29.40;;;;;;5111417;28;20401;-71
2022/02/28 00:49:38;;;;;;;4.35;3.42;;;22.80;29.30;;;;;;5111072;28;20388;-72
2022/02/28 00:52:04;;;;;;;4.40;3.75;;;22.80;29.40;;;;;;5110624;28;20891;-72
2022/02/28 00:54:30;;;;;;;5.22;4.22;;;22.80;29.40;;;;;;5111217;28;20372;-72
2022/02/28 00:56:56;;;;;;;6.20;4.50;;;22.80;29.30;;;;;;5111355;28;20396;-72
2022/02/28 00:59:22;;;;;;;4.65;4.10;;;22.80;29.30;;;;;;5110998;28;20738;-72
2022/02/28 01:01:48;;;;;;;4.88;3.88;;;22.80;29.30;;;;;;5111117;28;20415;-72
2022/02/28 01:04:14;;;;;;;5.38;4.13;;;22.80;29.30;;;;;;5110731;28;20402;-72
2022/02/28 01:06:40;;;;;;;4.78;3.95;;;22.70;29.30;;;;;;5111307;28;20746;-72
2022/02/28 01:09:06;;;;;;;4.85;3.75;;;22.70;29.30;;;;;;5114854;28;20459;-72
2022/02/28 01:11:33;;;;;;;4.90;4.00;;;22.70;29.30;;;;;;5113420;28;20392;-72
2022/02/28 01:13:59;;;;;;;5.00;3.90;;;22.80;29.30;;;;;;5114288;28;20385;-72
2022/02/28 01:16:26;;;;;;;4.60;3.75;;;22.70;29.20;;;;;;5114533;28;20880;-72
2022/02/28 01:18:53;;;;;;;4.97;3.78;;;22.70;29.20;;;;;;5114722;28;20377;-72
2022/02/28 01:21:19;;;;;;;4.40;3.83;;;22.70;29.20;;;;;;5114489;28;20407;-72
2022/02/28 01:23:45;;;;;;;5.60;4.00;;;22.70;29.20;;;;;;5114384;28;20389;-73
2022/02/28 01:26:11;;;;;;;5.20;4.10;;;22.70;29.20;;;;;;5114088;28;20377;-72
2022/02/28 01:28:37;;;;;;;4.90;4.05;;;22.70;29.20;;;;;;5114292;28;20391;-73
2022/02/28 01:31:03;;;;;;;4.60;4.07;;;22.70;29.20;;;;;;5113064;28;20798;-72
2022/02/28 01:33:30;;;;;;;4.53;4.00;;;22.70;29.10;;;;;;5114207;28;20471;-73
2022/02/28 01:35:57;;;;;;;4.43;3.75;;;22.70;29.10;;;;;;5113795;28;20381;-72
2022/02/28 01:38:23;;;;;;;4.47;3.80;;;22.60;29.10;;;;;;5114214;28;20385;-72
2022/02/28 01:40:49;;;;;;;4.50;3.80;;;22.60;29.10;;;;;;5114188;28;20376;-72
2022/02/28 01:43:15;;;;;;;4.32;3.45;;;22.60;29.10;;;;;;5114047;28;20417;-72
2022/02/28 01:45:41;;;;;;;4.22;3.53;;;22.70;29.10;;;;;;5112161;28;20408;-72
2022/02/28 01:48:08;;;;;;;5.25;3.80;;;22.60;29.00;;;;;;5113522;28;20450;-72
2022/02/28 01:50:34;;;;;;;4.80;3.78;;;22.60;29.00;;;;;;5112688;28;20776;-73
2022/02/28 01:53:01;;;;;;;4.13;3.72;;;22.60;29.00;;;;;;5113869;28;20387;-72
2022/02/28 01:55:27;;;;;;;3.90;3.40;;;22.60;29.10;;;;;;5113884;28;20389;-72
2022/02/28 01:57:53;;;;;;;4.53;3.80;;;22.60;29.00;;;;;;5113480;28;20385;-72
2022/02/28 02:00:23;;;;;;;4.88;3.85;;;22.50;29.10;;;;;;5113405;28;20849;-72
2022/02/28 02:02:49;;;;;;;4.50;3.72;;;22.50;29.00;;;;;;5113688;28;20950;-72
2022/02/28 02:05:15;;;;;;;4.15;3.58;;;22.50;29.10;;;;;;5113676;28;20418;-72
2022/02/28 02:07:42;;;;;;;4.20;3.58;;;22.50;29.00;;;;;;5113541;28;20437;-72
2022/02/28 02:10:11;;;;;;;4.53;3.47;;;22.40;29.00;;;;;;5112846;28;20381;-73
2022/02/28 02:12:38;;;;;;;4.10;3.42;;;22.50;29.00;;;;;;5113562;28;20395;-72
2022/02/28 02:15:10;;;;;;;4.20;3.80;;;22.50;29.00;;;;;;5113658;28;20474;-72
2022/02/28 02:17:37;;;;;;;5.15;3.90;;;22.50;28.90;;;;;;5113195;28;20389;-72
2022/02/28 02:20:08;;;;;;;4.78;3.83;;;22.40;28.90;;;;;;5112534;28;20399;-73
2022/02/28 02:22:34;;;;;;;4.47;3.45;;;22.50;29.20;;;;;;5113293;28;20408;-72
2022/02/28 02:25:00;;;;;;;4.18;3.28;;;22.50;29.00;;;;;;5113310;28;20380;-72
2022/02/28 02:27:27;;;;;;;4.10;3.60;;;22.40;28.90;;;;;;5112991;28;20391;-72
2022/02/28 02:29:53;;;;;;;4.30;3.70;;;22.50;29.00;;;;;;5113203;28;20388;-72
2022/02/28 02:32:19;;;;;;;4.25;3.50;;;22.50;29.00;;;;;;5112932;28;20909;-72
2022/02/28 02:34:45;;;;;;;4.60;3.63;;;22.50;29.00;;;;;;5111931;28;20387;-72
2022/02/28 02:37:12;;;;;;;3.65;3.30;;;22.50;28.90;;;;;;5111497;28;20825;-72
2022/02/28 02:39:43;;;;;;;4.63;3.63;;;22.40;28.80;;;;;;5111490;28;20393;-72
2022/02/28 02:42:09;;;;;;;3.80;3.40;;;22.40;28.90;;;;;;5110940;28;20457;-73
2022/02/28 02:44:36;;;;;;;5.72;3.33;;;22.40;28.90;;;;;;5111546;28;20433;-73
2022/02/28 02:47:03;;;;;;;3.53;3.03;;;22.40;28.90;;;;;;5112785;28;20432;-72
2022/02/28 02:49:30;;;;;;;4.60;3.45;;;22.30;28.80;;;;;;5112831;28;20874;-72
2022/02/28 02:51:57;;;;;;;3.45;2.92;;;22.40;28.90;;;;;;5112464;28;20393;-72
2022/02/28 02:54:23;;;;;;;3.78;3.30;;;22.40;28.80;;;;;;5111135;28;20381;-72
2022/02/28 02:56:49;;;;;;;3.80;3.30;;;22.30;28.80;;;;;;5112649;27;20399;-72
2022/02/28 02:59:15;;;;;;;3.80;3.20;;;22.30;28.80;;;;;;5112745;28;20384;-72
2022/02/28 03:01:41;;;;;;;4.18;3.40;;;22.30;28.70;;;;;;5112440;28;20816;-72
2022/02/28 03:04:07;;;;;;;3.75;3.15;;;22.30;28.70;;;;;;5112116;28;20377;-72
2022/02/28 03:06:34;;;;;;;4.00;3.25;;;22.30;28.80;;;;;;5112453;28;20437;-72
2022/02/28 03:09:01;;;;;;;3.72;3.30;;;22.30;28.70;;;;;;5111184;28;20399;-72
2022/02/28 03:11:26;;;;;;;3.67;3.28;;;22.30;28.70;;;;;;5112427;28;20384;-72
2022/02/28 03:13:52;;;;;;;4.25;3.42;;;22.30;28.70;;;;;;5112417;28;20873;-72
2022/02/28 03:16:18;;;;;;;3.53;2.83;;;22.30;28.70;;;;;;5111928;28;20389;-72
2022/02/28 03:18:44;;;;;;;3.80;3.30;;;22.30;28.70;;;;;;5112307;28;20904;-72
2022/02/28 03:21:10;;;;;;;4.63;3.35;;;22.30;28.70;;;;;;5112094;28;20730;-72
2022/02/28 03:23:36;;;;;;;3.40;3.07;;;22.30;28.70;;;;;;5112312;28;20388;-72
2022/02/28 03:26:02;;;;;;;3.92;3.13;;;22.30;28.70;;;;;;5111572;28;20376;-71
2022/02/28 03:28:28;;;;;;;3.77;3.37;;;22.30;28.70;;;;;;5112075;28;20445;-71
2022/02/28 03:30:54;;;;;;;3.88;3.13;;;22.30;28.80;;;;;;5111482;28;20407;-72
2022/02/28 03:33:20;;;;;;;3.95;3.00;;;22.30;28.70;;;;;;5111812;28;20400;-72
2022/02/28 03:35:46;;;;;;;3.75;3.33;;;22.20;28.60;;;;;;5112043;28;20388;-72
2022/02/28 03:38:12;;;;;;;3.83;3.37;;;22.20;28.70;;;;;;5111597;28;20494;-72
2022/02/28 03:40:39;;;;;;;3.97;3.28;;;22.20;28.60;;;;;;5112014;28;20388;-72
2022/02/28 03:43:06;;;;;;;3.55;3.20;;;22.20;28.60;;;;;;5111777;28;20415;-74
2022/02/28 03:45:33;;;;;;;3.50;3.10;;;22.20;28.60;;;;;;5111852;28;20546;-72
2022/02/28 03:47:59;;;;;;;3.67;3.25;;;22.20;28.50;;;;;;5111636;28;20384;-72
2022/02/28 03:50:25;;;;;;;3.57;3.27;;;22.20;28.60;;;;;;5111564;28;20392;-72
2022/02/28 03:52:52;;;;;;;4.28;3.40;;;22.20;28.60;;;;;;5111883;28;20376;-72
2022/02/28 03:55:18;;;;;;;4.22;3.50;;;22.20;28.60;;;;;;5111821;28;20395;-72
2022/02/28 03:57:43;;;;;;;3.67;3.20;;;22.20;28.60;;;;;;5111858;28;20377;-72
2022/02/28 04:00:10;;;;;;;3.38;3.08;;;22.20;28.40;;;;;;5111317;28;20738;-72
2022/02/28 04:02:36;;;;;;;3.30;2.85;;;22.10;28.40;;;;;;5111622;28;20905;-72
2022/02/28 04:05:02;;;;;;;5.88;3.40;;;22.10;28.60;;;;;;5093563;28;20388;-72
2022/02/28 04:07:28;;;;;;;3.60;2.78;;;22.10;28.50;;;;;;5110350;28;20384;-73
2022/02/28 04:09:54;;;;;;;3.43;3.00;;;22.00;28.70;;;;;;5111724;28;20383;-73
2022/02/28 04:12:20;;;;;;;4.75;3.30;;;22.10;28.40;;;;;;5110979;28;20392;-72
2022/02/28 04:14:46;;;;;;;4.65;3.33;;;22.10;29.20;;;;;;5111623;28;20865;-73
2022/02/28 04:17:12;;;;;;;5.43;3.80;;;22.30;29.80;;;;;;5111692;28;20393;-73
2022/02/28 04:19:39;;;;;;;4.88;3.30;;;22.30;30.50;;;;;;5111507;28;20380;-72
2022/02/28 04:22:04;;;;;;;5.68;3.67;;;22.30;30.90;;;;;;5111311;28;20409;-72
2022/02/28 04:24:31;;;;;;;5.40;3.55;;;22.40;31.10;;;;;;5111496;28;20396;-73
2022/02/28 04:26:57;;;;;;;5.80;3.10;;;22.40;31.10;;;;;;5111609;28;20394;-73
2022/02/28 04:29:24;;;;;;;6.22;3.25;;;22.40;31.10;;;;;;5110160;28;20742;-72
2022/02/28 04:31:50;;;;;;;6.43;3.53;;;22.50;30.70;;;;;;5111520;28;20388;-73
2022/02/28 04:34:16;;;;;;;6.70;3.77;;;22.50;30.70;;;;;;5111024;28;20384;-73
2022/02/28 04:36:42;;;;;;;8.07;3.40;;;22.50;30.00;;;;;;5110094;28;20746;-73
2022/02/28 04:39:09;;;;;;;6.63;3.50;;;22.50;30.30;;;;;;5111273;28;20870;-72
2022/02/28 04:41:35;;;;;;;8.23;3.40;;;22.50;30.30;;;;;;5112412;28;20404;-72
2022/02/28 04:44:01;;;;;;;5.20;3.25;;;22.50;30.70;;;;;;5114264;28;20840;-72
2022/02/28 04:46:27;;;;;;;5.90;3.70;;;22.50;30.70;;;;;;5114232;28;20404;-72
2022/02/28 04:48:53;;;;;;;6.30;2.95;;;22.50;30.50;;;;;;5114811;28;20389;-72
2022/02/28 04:51:19;;;;;;;4.78;3.40;;;22.50;30.30;;;;;;5114997;28;20379;-73
2022/02/28 04:53:45;;;;;;;7.25;3.47;;;22.50;30.10;;;;;;5114557;28;20369;-73
2022/02/28 04:56:11;;;;;;;5.60;3.40;;;22.40;30.20;;;;;;5113849;28;20738;-73
2022/02/28 04:58:37;;;;;;;5.32;3.42;;;22.40;30.20;;;;;;5114920;28;20414;-73
2022/02/28 05:01:02;;;;;;;4.13;3.20;;;22.40;30.60;;;;;;5114946;28;20849;-73
2022/02/28 05:03:28;;;;;;;6.75;3.40;;;22.40;29.80;;;;;;5113687;28;20997;-73
2022/02/28 05:05:54;;;;;;;6.78;3.40;;;22.30;29.80;;;;;;5113392;28;20388;-73
2022/02/28 05:08:20;;;;;;;9.02;3.28;;;22.40;29.90;;;;;;5112964;28;20958;-73
2022/02/28 05:10:46;;;;;;;7.13;3.40;;;22.30;30.00;;;;;;5114467;28;20754;-72
2022/02/28 05:13:12;;;;;;;6.45;3.58;;;22.30;29.90;;;;;;5114702;28;20748;-73
2022/02/28 05:15:38;;;;;;;6.72;3.38;;;22.30;30.20;;;;;;5112843;28;20434;-73
2022/02/28 05:18:04;;;;;;;7.07;3.72;;;22.40;30.00;;;;;;5114433;28;20388;-73
2022/02/28 05:20:30;;;;;;;5.82;3.35;;;22.40;30.00;;;;;;5112294;28;20391;-73
2022/02/28 05:22:56;;;;;;;4.77;3.47;;;22.40;29.90;;;;;;5114418;28;20412;-72
2022/02/28 05:25:22;;;;;;;6.65;3.50;;;22.40;29.50;;;;;;5114493;28;20918;-73
2022/02/28 05:27:48;;;;;;;5.93;3.55;;;22.30;29.40;;;;;;5114403;28;20388;-73
2022/02/28 05:30:15;;;;;;;5.40;3.65;;;22.30;29.30;;;;;;5111984;28;20750;-73
2022/02/28 05:32:42;;;;;;;5.32;3.50;;;22.40;29.10;;;;;;5101527;28;20480;-72
2022/02/28 05:35:16;;;;;;;4.50;3.40;;;22.40;29.10;;;;;;5093744;28;20431;-73
2022/02/28 05:37:42;;;;;;;5.83;3.40;;;22.40;29.10;;;;;;5094036;28;20524;-73
2022/02/28 05:40:10;;;;;;;5.57;3.35;;;22.40;29.10;;;;;;5093356;28;20416;-72
2022/02/28 05:42:36;;;;;;;4.45;3.30;;;22.40;29.10;;;;;;5091933;28;20422;-73
2022/02/28 05:45:04;;;;;;;7.00;3.67;;;22.30;29.10;;;;;;5092301;28;20421;-73
2022/02/28 05:47:30;;;;;;;5.15;3.38;;;22.30;29.00;;;;;;5092090;28;20397;-73
2022/02/28 05:49:55;;;;;;;4.38;3.30;;;22.30;28.90;;;;;;5092209;28;20736;-73
2022/02/28 05:52:21;;;;;;;4.57;3.30;;;22.30;28.90;;;;;;5092780;28;20898;-72
2022/02/28 05:54:47;;;;;;;5.60;3.70;;;22.30;29.10;;;;;;5093064;28;20380;-73
2022/02/28 05:57:12;;;;;;;4.73;3.50;;;22.20;29.30;;;;;;5093469;28;20386;-73
2022/02/28 05:59:38;;;;;;;5.10;3.40;;;22.20;29.20;;;;;;5093462;28;20382;-72
2022/02/28 06:02:04;;;;;;;4.90;3.47;;;22.30;29.00;;;;;;5091954;28;20410;-72
2022/02/28 06:04:29;;;;;;;6.40;3.60;;;22.20;29.10;;;;;;5092993;28;20467;-72
2022/02/28 06:06:55;;;;;;;4.60;3.43;;;22.10;29.20;;;;;;5093337;28;20461;-72
2022/02/28 06:09:21;;;;;;;5.53;3.53;;;22.10;29.20;;;;;;5092448;28;20421;-72
2022/02/28 06:11:49;;;;;;;6.87;3.50;;;22.20;29.20;;;;;;5092972;28;20382;-72
2022/02/28 06:14:15;;;;;;;5.10;3.58;;;22.20;28.90;;;;;;5092649;28;20400;-72
2022/02/28 06:16:40;;;;;;;5.47;3.63;;;22.10;29.00;;;;;;5093049;28;20390;-72
2022/02/28 06:19:06;;;;;;;5.07;3.53;;;22.10;29.00;;;;;;5091843;28;20390;-72
2022/02/28 06:21:32;;;;;;;5.85;3.83;;;22.10;29.00;;;;;;5091299;28;20811;-72
2022/02/28 06:23:57;;;;;;;5.13;3.60;;;22.10;29.00;;;;;;5092686;28;20423;-72
2022/02/28 06:26:23;;;;;;;5.90;3.40;;;22.20;29.10;;;;;;5090885;28;20386;-72
2022/02/28 06:28:49;;;;;;;5.35;3.90;;;22.10;29.10;;;;;;5091722;28;20434;-72
2022/02/28 06:31:14;;;;;;;4.93;3.33;;;22.20;29.10;;;;;;5092802;28;20442;-72
2022/02/28 06:33:40;;;;;;;5.72;3.60;;;22.20;29.10;;;;;;5092599;28;20402;-72
2022/02/28 06:36:06;;;;;;;5.03;3.67;;;22.20;29.00;;;;;;5092516;28;20808;-72
2022/02/28 06:38:32;;;;;;;6.50;3.55;;;22.20;28.90;;;;;;5090818;28;20389;-73
2022/02/28 06:40:58;;;;;;;6.50;3.50;;;22.20;29.00;;;;;;5092567;28;20747;-72
2022/02/28 06:43:24;;;;;;;8.03;3.93;;;22.20;29.60;;;;;;5092364;28;20767;-71
2022/02/28 06:45:51;;;;;;;5.85;3.38;;;22.10;29.80;;;;;;5091137;28;20989;-72
2022/02/28 06:48:18;;;;;;;6.97;3.63;;;22.10;29.60;;;;;;5092065;28;20917;-71
2022/02/28 06:50:45;;;;;;;8.52;3.70;;;22.10;29.70;;;;;;5092124;28;20378;-72
2022/02/28 06:53:11;;;;;;;6.45;3.80;;;22.10;29.50;;;;;;5090833;28;20398;-71
2022/02/28 06:55:43;;;;;;;7.88;3.90;;;22.10;29.40;;;;;;5091681;28;20378;-71
2022/02/28 06:58:09;;;;;;;6.13;3.80;;;22.10;29.30;;;;;;5090650;28;20404;-71
2022/02/28 07:00:35;;;;;;;8.13;3.83;;;22.20;29.20;;;;;;5091947;28;20378;-72
2022/02/28 07:03:00;;;;;;;5.40;3.55;;;22.20;29.10;;;;;;5092153;28;20424;-71
2022/02/28 07:05:26;;;;;;;7.40;3.83;;;22.10;28.80;;;;;;5091152;28;20389;-72
2022/02/28 07:07:52;;;;;;;7.78;3.85;;;22.10;28.80;;;;;;5090893;28;20402;-72
2022/02/28 07:10:18;;;;;;;6.35;3.90;;;22.10;28.90;;;;;;5091535;28;20961;-71
2022/02/28 07:12:44;;;;;;;5.63;3.80;;;22.10;28.90;;;;;;5092061;28;20382;-72
2022/02/28 07:15:09;;;;;;;5.35;3.70;;;22.10;28.90;;;;;;5090572;28;20425;-71
2022/02/28 07:17:35;;;;;;;4.47;3.40;;;22.00;29.00;;;;;;5090435;28;20834;-72
2022/02/28 07:20:01;;;;;;;5.20;3.87;;;22.00;28.90;;;;;;5090444;28;20779;-71
2022/02/28 07:22:27;;;;;;;4.80;3.60;;;22.00;29.00;;;;;;5090023;28;20420;-72
2022/02/28 07:24:53;;;;;;;4.90;3.55;;;22.00;28.90;;;;;;5090676;28;20485;-72
2022/02/28 07:27:19;;;;;;;4.97;3.63;;;22.00;28.90;;;;;;5091665;28;20557;-71
2022/02/28 07:29:44;;;;;;;7.15;3.80;;;22.00;28.90;;;;;;5098200;28;20428;-71
2022/02/28 07:32:10;;;;;;;5.20;4.00;;;22.00;29.00;;;;;;5109589;28;20416;-71
2022/02/28 07:34:36;;;;;;;5.10;3.70;;;22.00;29.40;;;;;;5110414;28;20836;-71
2022/02/28 07:37:02;;;;;;;4.60;3.60;;;22.00;28.90;;;;;;5110680;28;20392;-71
2022/02/28 07:39:28;;;;;;;6.10;3.90;;;22.00;28.90;;;;;;5110649;28;20412;-71
2022/02/28 07:41:58;;;;;;;6.53;3.70;;;22.00;29.00;;;;;;5110269;28;20408;-71
2022/02/28 07:44:24;;;;;;;5.45;3.70;;;22.00;29.00;;;;;;5111486;28;20389;-72
2022/02/28 07:46:49;;;;;;;5.47;3.80;;;22.00;29.00;;;;;;5111830;28;20411;-71
2022/02/28 07:49:15;;;;;;;6.50;3.57;;;22.00;29.00;;;;;;5110829;28;20392;-72
2022/02/28 07:51:41;;;;;;;6.38;3.90;;;22.00;29.10;;;;;;5109536;28;20426;-71
2022/02/28 07:54:07;;;;;;;5.43;3.70;;;22.00;29.00;;;;;;5109138;28;20399;-71
2022/02/28 07:56:32;;;;;;;4.55;3.55;;;22.10;29.00;;;;;;5108471;28;20399;-72
2022/02/28 07:58:58;;;;;;;5.20;4.00;;;22.10;29.00;;;;;;5110645;28;20388;-71
2022/02/28 08:01:23;;;;;;;5.25;3.70;;;22.00;29.00;;;;;;5111102;28;20396;-71
2022/02/28 08:03:49;;;;;;;5.50;3.80;;;22.10;29.00;;;;;;5110622;28;20449;-71
2022/02/28 08:06:15;;;;;;;5.78;3.95;;;22.10;29.00;;;;;;5110280;28;20380;-71
2022/02/28 08:08:41;;;;;;;5.60;3.90;;;22.10;28.90;;;;;;5110142;28;20423;-70
2022/02/28 08:11:07;;;;;;;5.10;3.63;;;22.20;29.00;;;;;;5108988;28;20381;-71
2022/02/28 08:13:32;;;;;;;4.65;3.58;;;22.20;29.00;;;;;;5108563;28;20392;-72
2022/02/28 08:16:00;;;;;;;4.87;3.70;;;22.20;28.90;;;;;;5110737;28;20900;-72
2022/02/28 08:18:26;;;;;;;4.90;3.75;;;22.20;28.90;;;;;;5112968;28;20400;-72
2022/02/28 08:20:52;;;;;;;5.05;3.95;;;22.30;28.80;;;;;;5113579;28;20400;-71
2022/02/28 08:23:18;;;;;;;5.18;3.70;;;22.30;28.80;;;;;;5112957;28;20766;-71
2022/02/28 08:25:45;;;;;;;5.05;3.65;;;22.30;28.80;;;;;;5113186;28;20380;-71
2022/02/28 08:28:12;;;;;;;4.47;3.47;;;22.40;28.70;;;;;;5114044;28;20384;-72
2022/02/28 08:30:38;;;;;;;4.88;3.65;;;22.40;28.70;;;;;;5113841;28;20384;-71
2022/02/28 08:33:05;;;;;;;4.72;3.80;;;22.50;28.70;;;;;;5114250;28;20954;-73
2022/02/28 08:35:32;;;;;;;4.70;3.40;;;22.50;28.70;;;;;;5111437;28;20424;-72
2022/02/28 08:37:58;;;;;;;4.70;3.50;;;22.50;28.60;;;;;;5114227;28;20438;-73
2022/02/28 08:40:25;;;;;;;4.80;3.70;;;22.60;28.70;;;;;;5114055;28;20457;-71
2022/02/28 08:42:51;;;;;;;4.68;3.40;;;22.60;28.70;;;;;;5114816;28;20423;-70
2022/02/28 08:45:17;;;;;;;4.60;3.42;;;22.60;28.60;;;;;;5114344;28;20396;-71
2022/02/28 08:47:43;;;;;;;4.57;3.47;;;22.60;28.60;;;;;;5113264;28;20464;-71
2022/02/28 08:50:09;;;;;;;4.70;3.60;;;22.60;28.60;;;;;;5114750;28;20467;-70
2022/02/28 08:52:35;;;;;;;4.35;3.45;;;22.60;28.50;;;;;;5114208;28;20395;-70
2022/02/28 08:55:03;;;;;;;4.65;3.50;;;22.60;28.50;;;;;;5114576;28;20451;-71
2022/02/28 08:57:30;;;;;;;4.80;3.35;;;22.70;28.60;;;;;;5114570;28;20416;-72
2022/02/28 08:59:56;;;;;;;4.80;3.50;;;22.70;28.60;;;;;;5114505;28;20434;-72
2022/02/28 09:02:23;;;;;;;4.03;3.10;;;22.70;28.60;;;;;;5113373;28;20412;-71
2022/02/28 09:04:49;;;;;;;4.10;3.00;;;22.70;28.50;;;;;;5112572;28;20387;-72
2022/02/28 09:07:15;;;;;;;3.97;3.30;;;22.70;28.50;;;;;;5113217;28;20380;-72
2022/02/28 09:09:41;;;;;;;3.72;3.00;;;22.80;28.50;;;;;;5113479;28;20387;-75
2022/02/28 09:12:07;;;;;;;3.60;3.00;;;22.70;28.50;;;;;;5114087;28;20471;-72
2022/02/28 09:14:33;;;;;;;4.70;3.40;;;22.80;28.50;;;;;;5114146;28;20384;-71
2022/02/28 09:16:59;;;;;;;4.00;3.03;;;22.70;28.50;;;;;;5114792;28;20383;-72
2022/02/28 09:19:24;;;;;;;3.22;2.70;;;22.80;28.50;;;;;;5114396;28;20392;-71
2022/02/28 09:21:53;;;;;;;4.13;3.00;;;22.80;28.50;;;;;;5114476;28;20413;-73
2022/02/28 09:24:18;;;;;;;3.83;2.88;;;22.80;28.50;;;;;;5114088;28;20381;-71
2022/02/28 09:26:44;;;;;;;4.23;2.77;;;22.80;28.50;;;;;;5114251;28;20391;-71
2022/02/28 09:29:10;;;;;;;3.85;3.00;;;22.80;28.50;;;;;;5113047;28;20403;-72
2022/02/28 09:31:36;;;;;;;4.82;3.20;;;22.70;28.40;;;;;;5112313;28;20400;-71
2022/02/28 09:34:03;;;;;;;4.55;2.97;;;22.70;28.80;;;;;;5112787;28;20392;-71
2022/02/28 09:36:31;;;;;;;5.78;2.95;;;22.70;28.80;;;;;;5112406;28;20391;-72
2022/02/28 09:38:59;;;;;;;3.50;2.83;;;22.70;28.80;;;;;;5113046;28;20392;-72
2022/02/28 09:41:26;;;;;;;4.78;2.90;;;22.60;28.80;;;;;;5114069;28;20392;-71
2022/02/28 09:43:53;;;;;;;4.75;3.17;;;22.70;29.00;;;;;;5114227;28;20428;-71
2022/02/28 09:46:19;;;;;;;3.42;2.78;;;22.60;28.90;;;;;;5113672;28;20416;-71
2022/02/28 09:48:46;;;;;;;3.90;2.75;;;22.60;29.00;;;;;;5113909;28;20942;-71
2022/02/28 09:51:12;;;;;;;3.22;2.70;;;22.60;29.00;;;;;;5113927;28;20380;-73
2022/02/28 09:53:37;;;;;;;3.73;2.67;;;22.60;29.00;;;;;;5113342;28;20400;-70
2022/02/28 09:56:03;;;;;;;3.63;2.92;;;22.60;29.00;;;;;;5112847;28;20869;-71
2022/02/28 09:58:30;;;;;;;3.25;2.63;;;22.60;29.00;;;;;;5112007;28;20874;-71
2022/02/28 10:00:58;;;;;;;2.90;2.60;;;22.60;29.10;;;;;;5113555;27;20380;-71
2022/02/28 10:03:26;;;;;;;3.30;2.53;;;22.60;29.10;;;;;;5113409;28;20420;-71
2022/02/28 10:05:59;;;;;;;3.80;2.70;;;22.50;29.10;;;;;;5112501;28;20388;-71
2022/02/28 10:08:31;;;;;;;3.92;2.47;;;22.60;29.00;;;;;;5109725;28;20391;-71
2022/02/28 10:10:57;;;;;;;3.67;2.55;;;22.50;29.10;;;;;;5112826;28;20373;-71
2022/02/28 10:13:31;;;;;;;3.63;2.55;;;22.50;29.00;;;;;;5113552;28;20388;-71
2022/02/28 10:15:57;;;;;;;3.53;2.50;;;22.60;29.10;;;;;;5112228;28;20958;-71
2022/02/28 10:18:26;;;;;;;3.85;2.70;;;22.60;29.10;;;;;;5111756;28;20393;-71
2022/02/28 10:20:52;;;;;;;3.63;2.55;;;22.60;29.10;;;;;;5112974;27;20385;-72
2022/02/28 10:23:18;;;;;;;3.00;2.55;;;22.60;29.10;;;;;;5112066;28;20860;-72
2022/02/28 10:25:51;;;;;;;3.13;2.47;;;22.60;29.00;;;;;;5111957;28;20381;-71
2022/02/28 10:28:24;;;;;;;3.10;2.20;;;22.60;29.10;;;;;;5112031;28;20384;-70
2022/02/28 10:31:02;;;;;;;3.53;2.42;;;22.60;29.20;;;;;;5110613;28;20384;-72
2022/02/28 10:33:32;;;;;;;2.90;2.40;;;22.50;29.30;;;;;;5113332;28;20467;-72
2022/02/28 10:36:10;;;;;;;3.28;2.20;;;22.50;29.30;;;;;;5113324;28;20387;-71
2022/02/28 10:38:43;;;;;;;3.65;2.58;;;22.50;29.30;;;;;;5109077;28;20445;-72
2022/02/28 10:41:24;;;;;;;2.78;2.35;;;22.50;29.30;;;;;;5110846;28;20389;-72
2022/02/28 10:43:52;;;;;;;5.80;2.40;;;22.50;29.30;;;;;;5113093;28;20730;-71
2022/02/28 10:46:29;;;;;;;3.38;2.33;;;22.50;29.30;;;;;;5112704;28;20908;-71
2022/02/28 10:49:07;;;;;;;5.35;2.53;;;22.50;29.30;;;;;;5112324;28;20435;-72
2022/02/28 10:51:53;;;;;;;3.38;2.40;;;22.50;29.40;;;;;;5110375;28;20894;-71
2022/02/28 10:54:34;;;;;;;4.00;2.22;;;22.50;29.30;;;;;;5110879;28;20419;-67
2022/02/28 10:57:13;;;;;;;3.92;2.25;;;22.50;29.30;;;;;;5110287;28;20393;-68
2022/02/28 10:59:47;;;;;;;3.90;2.20;;;22.50;29.40;;;;;;5109716;28;20408;-72
2022/02/28 11:02:26;;;;;;;3.60;2.20;;;22.50;29.40;;;;;;5112031;28;20774;-75
2022/02/28 11:05:15;;;;;;;4.15;2.45;;;22.70;29.80;;;;;;5112544;28;20388;-76
2022/02/28 11:07:49;;;;;;;2.97;2.28;;;22.50;29.30;;;;;;5110169;28;20399;-73
2022/02/28 11:10:20;;;;;;;3.17;2.30;;;22.50;29.30;;;;;;5110844;28;20388;-71
2022/02/28 11:12:47;;;;;;;4.68;2.50;;;22.50;29.20;;;;;;5110004;28;21051;-77
2022/02/28 11:15:18;;;;;;;2.70;2.30;;;22.50;29.30;;;;;;5112512;28;20377;-74
2022/02/28 11:17:46;;;;;;;3.30;2.20;;;22.50;29.30;;;;;;5112749;28;20465;-68
2022/02/28 11:20:20;;;;;;;3.30;2.58;;;22.60;29.30;;;;;;5112451;28;20386;-66
2022/02/28 11:22:49;;;;;;;3.00;2.40;;;22.60;29.10;;;;;;5112048;28;20830;-67
2022/02/28 11:25:17;;;;;;;3.35;2.75;;;22.50;29.10;;;;;;5110878;28;20395;-65
2022/02/28 11:27:45;;;;;;;3.33;2.58;;;22.60;29.10;;;;;;5112290;28;20908;-65
2022/02/28 11:30:15;;;;;;;3.30;2.50;;;22.60;29.00;;;;;;5112286;28;20495;-69
2022/02/28 11:32:43;;;;;;;2.92;2.40;;;22.60;29.10;;;;;;5111845;28;20376;-70
2022/02/28 11:35:36;;;;;;;2.83;2.28;;;22.60;29.10;;;;;;5112335;28;20395;-70
2022/02/28 11:38:27;;;;;;;3.13;2.30;;;22.60;29.00;;;;;;5112129;28;20396;-73
2022/02/28 11:41:00;;;;;;;3.55;2.60;;;22.60;29.10;;;;;;5094133;28;20385;-69
2022/02/28 11:43:28;;;;;;;4.15;2.50;;;22.60;29.00;;;;;;5110680;28;20416;-70
2022/02/28 11:46:06;;;;;;;2.95;2.47;;;22.60;29.00;;;;;;5111900;28;20422;-66
2022/02/28 11:48:48;;;;;;;3.22;2.40;;;22.70;29.10;;;;;;5111542;28;20393;-67
2022/02/28 11:51:33;;;;;;;4.20;2.78;;;22.70;29.00;;;;;;5110938;28;20449;-67
2022/02/28 11:54:05;;;;;;;3.17;2.70;;;22.60;28.80;;;;;;5109638;28;20429;-69
2022/02/28 11:56:34;;;;;;;3.50;2.60;;;22.70;28.90;;;;;;5108604;28;20384;-71
2022/02/28 11:59:02;;;;;;;3.33;2.42;;;22.70;28.90;;;;;;5110430;28;20408;-72
2022/02/28 12:01:29;;;;;;;3.37;2.40;;;22.70;28.90;;;;;;5111327;28;20449;-78
2022/02/28 12:04:08;;;;;;;3.20;2.33;;;22.70;29.00;;;;;;5110855;28;20429;-77
2022/02/28 12:06:55;;;;;;;5.57;3.60;;;22.70;29.00;;;;;;5111486;28;20467;-77
2022/02/28 12:09:35;;;;;;;5.85;3.33;;;22.70;27.40;;;;;;5106196;28;20485;-69
2022/02/28 12:12:34;;;;;;;6.05;3.20;;;22.70;27.40;;;;;;5102292;28;20435;-75
2022/02/28 12:15:00;;;;;;;4.43;2.60;;;22.70;27.80;;;;;;5106640;28;20933;-74
2022/02/28 12:17:44;;;;;;;4.63;2.65;;;22.80;28.00;;;;;;5109279;28;20395;-69
2022/02/28 12:20:23;;;;;;;4.93;2.70;;;22.80;28.20;;;;;;5090140;28;20443;-70
2022/02/28 12:22:55;;;;;;;3.22;2.33;;;22.80;28.20;;;;;;5091157;28;20431;-75
2022/02/28 12:25:43;;;;;;;5.22;2.70;;;22.80;28.30;;;;;;5095980;28;20877;-70
2022/02/28 12:28:38;;;;;;;3.40;2.65;;;22.70;28.50;;;;;;5090080;28;20410;-69
2022/02/28 12:31:08;;;;;;;3.67;2.50;;;22.70;28.30;;;;;;5089913;28;20759;-71
2022/02/28 12:33:34;;;;;;;3.50;2.40;;;22.70;28.40;;;;;;5091152;28;20390;-71
2022/02/28 12:36:10;;;;;;;3.50;2.75;;;22.70;28.60;;;;;;5091265;28;20887;-70
2022/02/28 12:38:44;;;;;;;3.25;2.60;;;22.70;28.40;;;;;;5089278;28;20386;-71
2022/02/28 12:41:16;;;;;;;3.25;2.40;;;22.70;28.50;;;;;;5089913;28;20398;-73
2022/02/28 12:43:43;;;;;;;3.17;2.30;;;22.70;28.60;;;;;;5091118;28;20410;-73
2022/02/28 12:46:13;;;;;;;4.10;2.40;;;22.70;28.60;;;;;;5089697;28;20493;-70
2022/02/28 12:48:44;;;;;;;5.40;2.40;;;22.60;28.60;;;;;;5099524;28;20406;-69
2022/02/28 12:51:12;;;;;;;2.78;2.45;;;22.70;28.60;;;;;;5107681;28;20459;-69